createdAt,value
2019-03-19T05:40:57.054Z,83.65
2019-03-19T05:41:57.038Z,83.80
2019-03-19T05:42:57.026Z,83.59
2019-03-19T05:43:57.011Z,84.11
2019-03-19T05:44:57.001Z,84.52
2019-03-19T05:45:57.000Z,84.42
2019-03-19T05:46:56.983Z,84.11
2019-03-19T05:47:56.975Z,84.11
2019-03-19T05:48:56.964Z,84.21
2019-03-19T05:49:56.954Z,84.63
2019-03-19T05:50:56.947Z,84.42
2019-03-19T05:51:56.963Z,83.90
2019-03-19T05:52:56.922Z,84.31
2019-03-19T05:53:56.910Z,84.63
2019-03-19T05:54:56.900Z,84.42
2019-03-19T05:55:56.890Z,84.52
2019-03-19T05:56:56.874Z,84.42
2019-03-19T05:57:56.878Z,83.59
2019-03-19T05:58:56.861Z,83.69
2019-03-19T05:59:56.841Z,84.21
2019-03-19T06:00:56.875Z,83.90
2019-03-19T06:01:56.824Z,84.21
2019-03-19T06:02:56.820Z,83.80
2019-03-19T06:03:56.812Z,83.80
2019-03-19T06:04:56.788Z,83.90
2019-03-19T06:05:56.784Z,83.90
2019-03-19T06:06:56.775Z,83.80
2019-03-19T06:07:56.769Z,83.86
2019-03-19T06:08:56.745Z,84.11
2019-03-19T06:09:56.786Z,83.97
2019-03-19T06:10:56.729Z,83.90
2019-03-19T06:11:56.720Z,83.80
2019-03-19T06:12:56.717Z,83.80
2019-03-19T06:13:56.693Z,83.55
2019-03-19T06:14:56.686Z,83.38
2019-03-19T06:15:56.675Z,83.69
2019-03-19T06:16:56.666Z,83.90
2019-03-19T06:17:56.657Z,83.59
2019-03-19T06:18:56.647Z,83.59
2019-03-19T06:19:56.628Z,84.17
2019-03-19T06:20:56.623Z,84.38
2019-03-19T06:21:56.919Z,84.28
2019-03-19T06:22:56.604Z,84.38
2019-03-19T06:23:56.585Z,84.07
2019-03-19T06:24:56.581Z,83.65
2019-03-19T06:25:56.575Z,83.24
2019-03-19T06:26:56.560Z,83.14
2019-03-19T06:28:00.726Z,83.14
2019-03-19T06:28:56.541Z,83.31
2019-03-19T06:29:56.521Z,82.58
2019-03-19T06:30:56.510Z,83.20
2019-03-19T06:31:56.502Z,83.00
2019-03-19T06:32:56.489Z,82.79
2019-03-19T06:33:56.507Z,82.68
2019-03-19T06:34:56.474Z,82.48
2019-03-19T06:35:56.468Z,82.48
2019-03-19T06:36:56.452Z,82.79
2019-03-19T06:37:56.442Z,82.58
2019-03-19T06:38:56.425Z,82.48
2019-03-19T06:39:56.433Z,82.89
2019-03-19T06:40:56.406Z,83.00
2019-03-19T06:41:56.399Z,82.68
2019-03-19T06:42:56.385Z,82.27
2019-03-19T06:43:56.373Z,82.58
2019-03-19T06:44:56.374Z,83.00
2019-03-19T06:45:56.361Z,83.00
2019-03-19T06:46:56.341Z,83.00
2019-03-19T06:47:56.336Z,83.31
2019-03-19T06:48:56.322Z,82.48
2019-03-19T06:49:56.326Z,82.48
2019-03-19T06:50:56.301Z,82.68
2019-03-19T06:51:56.299Z,82.58
2019-03-19T06:52:56.280Z,82.58
2019-03-19T06:53:56.278Z,82.37
2019-03-19T06:54:56.266Z,82.37
2019-03-19T06:55:56.245Z,82.27
2019-03-19T06:56:56.237Z,82.03
2019-03-19T06:57:56.228Z,81.85
2019-03-19T06:58:56.216Z,82.48
2019-03-19T06:59:56.203Z,83.00
2019-03-19T07:00:56.201Z,83.00
2019-03-19T07:01:56.186Z,82.75
2019-03-19T07:02:56.171Z,82.86
2019-03-19T07:03:56.161Z,84.06
2019-03-19T07:04:56.148Z,82.81
2019-03-19T07:05:56.141Z,82.50
2019-03-19T07:06:56.137Z,81.88
2019-03-19T07:07:56.113Z,81.95
2019-03-19T07:08:56.102Z,81.64
2019-03-19T07:09:56.097Z,81.23
2019-03-19T07:10:56.080Z,80.60
2019-03-19T07:11:56.069Z,79.47
2019-03-19T07:12:56.067Z,79.47
2019-03-19T07:13:56.049Z,79.50
2019-03-19T07:14:56.037Z,79.40
2019-03-19T07:15:56.029Z,79.57
2019-03-19T07:16:56.016Z,79.36
2019-03-19T07:17:56.014Z,79.67
2019-03-19T07:18:56.000Z,79.77
2019-03-19T07:19:55.983Z,79.36
2019-03-19T07:20:55.981Z,78.64
2019-03-19T07:21:55.972Z,80.08
2019-03-19T07:22:55.967Z,80.60
2019-03-19T07:23:55.948Z,79.67
2019-03-19T07:24:55.933Z,77.81
2019-03-19T07:25:55.920Z,78.22
2019-03-19T07:26:55.910Z,78.53
2019-03-19T07:27:55.935Z,78.02
2019-03-19T07:28:55.893Z,78.33
2019-03-19T07:29:55.879Z,77.81
2019-03-19T07:30:55.873Z,79.88
2019-03-19T07:31:55.873Z,78.22
2019-03-19T07:32:55.849Z,78.02
2019-03-19T07:33:55.858Z,77.81
2019-03-19T07:34:55.824Z,78.12
2019-03-19T07:35:55.814Z,78.12
2019-03-19T07:36:55.803Z,78.60
2019-03-19T07:37:55.800Z,78.02
2019-03-19T07:38:55.789Z,77.50
2019-03-19T07:39:55.772Z,78.19
2019-03-19T07:40:55.759Z,77.50
2019-03-19T07:41:55.751Z,77.70
2019-03-19T07:42:55.769Z,78.22
2019-03-19T07:43:55.733Z,79.47
2019-03-19T07:44:55.722Z,78.29
2019-03-19T07:45:55.710Z,76.98
2019-03-19T07:46:55.695Z,77.39
2019-03-19T07:47:55.685Z,77.81
2019-03-19T07:48:55.693Z,77.87
2019-03-19T07:49:55.669Z,77.05
2019-03-19T07:50:55.658Z,77.05
2019-03-19T07:51:55.643Z,76.43
2019-03-19T07:52:55.632Z,76.84
2019-03-19T07:53:55.633Z,76.53
2019-03-19T07:54:55.617Z,77.53
2019-03-19T07:55:55.626Z,77.22
2019-03-19T07:56:55.587Z,76.09
2019-03-19T07:57:55.581Z,76.18
2019-03-19T07:58:55.569Z,76.05
2019-03-19T07:59:55.567Z,75.95
2019-03-19T08:00:55.545Z,75.12
2019-03-19T08:01:55.541Z,74.91
2019-03-19T08:02:55.522Z,75.09
2019-03-19T08:03:55.525Z,74.22
2019-03-19T08:04:55.513Z,73.77
2019-03-19T08:05:55.495Z,72.40
2019-03-19T08:06:55.482Z,71.37
2019-03-19T08:07:55.470Z,70.82
2019-03-19T08:08:55.463Z,70.20
2019-03-19T08:09:55.458Z,70.72
2019-03-19T08:10:55.450Z,70.86
2019-03-19T08:11:55.426Z,70.92
2019-03-19T08:12:55.414Z,70.17
2019-03-19T08:13:55.409Z,69.42
2019-03-19T08:14:55.393Z,68.39
2019-03-19T08:15:55.388Z,68.25
2019-03-19T08:16:55.376Z,68.63
2019-03-19T08:17:55.360Z,66.82
2019-03-19T08:18:55.348Z,65.22
2019-03-19T08:19:57.192Z,63.96
2019-03-19T08:20:55.338Z,61.92
2019-03-19T08:21:56.257Z,60.35
2019-03-19T08:22:55.313Z,59.58
2019-03-19T08:23:55.293Z,58.25
2019-03-19T08:24:55.283Z,57.38
2019-03-19T08:25:55.271Z,56.74
2019-03-19T08:26:55.271Z,55.56
2019-03-19T08:27:55.261Z,55.02
2019-03-19T08:28:55.761Z,55.05
2019-03-19T08:29:55.236Z,55.33
2019-03-19T08:30:55.217Z,56.76
2019-03-19T08:31:55.214Z,56.40
2019-03-19T08:32:55.208Z,55.46
2019-03-19T08:33:55.186Z,53.98
2019-03-19T08:34:55.181Z,53.24
2019-03-19T08:35:55.178Z,52.20
2019-03-19T08:36:55.153Z,51.71
2019-03-19T08:37:55.740Z,52.17
2019-03-19T08:38:55.130Z,51.51
2019-03-19T08:39:56.772Z,53.21
2019-03-19T08:40:55.119Z,54.03
2019-03-19T08:41:55.097Z,53.88
2019-03-19T08:42:55.098Z,52.04
2019-03-19T08:43:55.089Z,54.03
2019-03-19T08:44:55.069Z,54.13
2019-03-19T08:45:55.059Z,53.80
2019-03-19T08:46:55.049Z,54.36
2019-03-19T08:47:55.034Z,55.74
2019-03-19T08:48:55.029Z,56.38
2019-03-19T08:49:55.014Z,54.44
2019-03-19T08:50:55.000Z,52.27
2019-03-19T08:51:54.989Z,52.65
2019-03-19T08:52:55.597Z,51.53
2019-03-19T08:53:55.036Z,52.60
2019-03-19T08:54:54.955Z,54.87
2019-03-19T08:55:54.945Z,53.98
2019-03-19T08:56:54.935Z,54.46
2019-03-19T08:57:54.923Z,54.33
2019-03-19T08:59:05.404Z,55.49
2019-03-19T08:59:57.178Z,54.41
2019-03-19T09:00:54.899Z,52.98
2019-03-19T09:01:54.884Z,52.14
2019-03-19T09:02:54.868Z,52.34
2019-03-19T09:03:54.864Z,54.16
2019-03-19T09:04:54.859Z,55.82
2019-03-19T09:05:54.840Z,56.35
2019-03-19T09:06:54.831Z,56.00
2019-03-19T09:07:54.815Z,56.64
2019-03-19T09:08:54.808Z,56.90
2019-03-19T09:09:54.801Z,58.26
2019-03-19T09:10:54.795Z,59.85
2019-03-19T09:11:54.771Z,59.64
2019-03-19T09:12:54.770Z,59.95
2019-03-19T09:13:54.754Z,57.15
2019-03-19T09:14:54.752Z,55.13
2019-03-19T09:15:54.733Z,54.05
2019-03-19T09:16:54.725Z,53.88
2019-03-19T09:17:54.709Z,53.52
2019-03-19T09:18:54.694Z,52.04
2019-03-19T09:19:54.688Z,50.18
2019-03-19T09:20:54.678Z,50.92
2019-03-19T09:21:54.717Z,51.81
2019-03-19T09:22:54.655Z,49.75
2019-03-19T09:23:54.640Z,48.38
2019-03-19T09:24:54.633Z,46.55
2019-03-19T09:25:56.432Z,46.87
2019-03-19T09:26:54.608Z,46.85
2019-03-19T09:27:54.607Z,46.55
2019-03-19T09:28:54.585Z,46.44
2019-03-19T09:29:54.575Z,48.85
2019-03-19T09:30:54.567Z,49.62
2019-03-19T09:31:54.556Z,49.22
2019-03-19T09:32:54.552Z,49.96
2019-03-19T09:33:54.530Z,50.33
2019-03-19T09:34:54.526Z,49.77
2019-03-19T09:35:54.521Z,49.37
2019-03-19T09:36:57.560Z,49.49
2019-03-19T09:37:58.725Z,50.23
2019-03-19T09:38:54.475Z,50.43
2019-03-19T09:39:54.467Z,50.81
2019-03-19T09:40:54.455Z,49.19
2019-03-19T09:41:54.445Z,47.21
2019-03-19T09:42:54.444Z,47.08
2019-03-19T09:43:54.423Z,47.22
2019-03-19T09:44:58.378Z,48.98
2019-03-19T09:45:54.402Z,49.21
2019-03-19T09:46:54.391Z,51.78
2019-03-19T09:47:54.436Z,53.95
2019-03-19T09:48:54.370Z,53.95
2019-03-19T09:49:54.360Z,54.05
2019-03-19T09:50:54.353Z,54.39
2019-03-19T09:51:54.336Z,53.23
2019-03-19T09:52:54.320Z,54.67
2019-03-19T09:53:54.335Z,53.26
2019-03-19T09:54:54.299Z,53.23
2019-03-19T09:55:54.289Z,52.80
2019-03-19T09:56:54.279Z,52.72
2019-03-19T09:57:54.266Z,52.75
2019-03-19T09:58:54.254Z,53.06
2019-03-19T09:59:54.254Z,52.37
2019-03-19T10:00:54.233Z,53.72
2019-03-19T10:01:54.227Z,54.13
2019-03-19T10:02:54.230Z,54.77
2019-03-19T10:03:54.210Z,55.28
2019-03-19T10:04:54.202Z,55.72
2019-03-19T10:05:54.184Z,56.26
2019-03-19T10:06:54.170Z,56.56
2019-03-19T10:07:55.661Z,56.56
2019-03-19T10:08:54.161Z,56.71
2019-03-19T10:09:54.134Z,56.82
2019-03-19T10:10:54.124Z,57.64
2019-03-19T10:11:54.112Z,58.39
2019-03-19T10:12:54.102Z,58.41
2019-03-19T10:13:54.099Z,57.59
2019-03-19T10:14:54.080Z,56.18
2019-03-19T10:15:54.113Z,56.87
2019-03-19T10:16:54.058Z,56.20
2019-03-19T10:17:54.052Z,54.00
2019-03-19T10:18:54.041Z,53.95
2019-03-19T10:19:54.032Z,50.01
2019-03-19T10:20:54.033Z,52.14
2019-03-19T10:21:54.038Z,47.92
2019-03-19T10:22:53.993Z,50.25
2019-03-19T10:23:53.986Z,49.79
2019-03-19T10:24:53.972Z,47.94
2019-03-19T10:25:53.968Z,45.16
2019-03-19T10:26:53.957Z,45.22
2019-03-19T10:27:53.950Z,46.55
2019-03-19T10:28:53.926Z,45.07
2019-03-19T10:29:53.922Z,44.12
2019-03-19T10:30:53.907Z,44.06
2019-03-19T10:31:53.905Z,42.29
2019-03-19T10:32:53.897Z,40.73
2019-03-19T10:33:53.877Z,38.97
2019-03-19T10:34:53.862Z,38.73
2019-03-19T10:35:53.855Z,36.86
2019-03-19T10:36:53.849Z,36.57
2019-03-19T10:37:53.843Z,36.83
2019-03-19T10:38:53.827Z,36.96
2019-03-19T10:39:54.757Z,36.82
2019-03-19T10:40:53.801Z,39.00
2019-03-19T10:41:53.791Z,39.83
2019-03-19T10:42:53.790Z,39.66
2019-03-19T10:43:53.762Z,41.72
2019-03-19T10:44:53.757Z,41.84
2019-03-19T10:45:53.749Z,43.87
2019-03-19T10:46:53.729Z,43.79
2019-03-19T10:47:53.755Z,43.29
2019-03-19T10:48:53.714Z,42.21
2019-03-19T10:49:53.702Z,42.43
2019-03-19T10:50:53.685Z,43.57
2019-03-19T10:51:53.681Z,44.20
2019-03-19T10:52:53.669Z,44.73
2019-03-19T10:53:53.661Z,44.85
2019-03-19T10:54:53.648Z,44.78
2019-03-19T10:55:53.642Z,44.67
2019-03-19T10:56:53.626Z,46.12
2019-03-19T10:57:53.611Z,46.44
2019-03-19T10:58:53.607Z,47.35
2019-03-19T10:59:53.595Z,46.84
2019-03-19T11:00:53.585Z,47.74
2019-03-19T11:01:53.570Z,46.64
2019-03-19T11:02:53.559Z,46.41
2019-03-19T11:03:53.600Z,45.20
2019-03-19T11:04:53.534Z,44.31
2019-03-19T11:05:53.522Z,42.94
2019-03-19T11:06:53.515Z,42.96
2019-03-19T11:07:53.506Z,42.29
2019-03-19T11:08:53.487Z,42.10
2019-03-19T11:09:53.493Z,43.67
2019-03-19T11:10:53.470Z,44.31
2019-03-19T11:11:53.459Z,44.55
2019-03-19T11:12:53.450Z,45.36
2019-03-19T11:13:53.438Z,44.65
2019-03-19T11:14:53.431Z,44.26
2019-03-19T11:15:53.416Z,42.65
2019-03-19T11:16:53.428Z,43.43
2019-03-19T11:17:53.397Z,42.43
2019-03-19T11:18:53.502Z,40.50
2019-03-19T11:19:53.502Z,39.42
2019-03-19T11:20:54.265Z,40.47
2019-03-19T11:21:53.356Z,39.70
2019-03-19T11:22:55.268Z,38.43
2019-03-19T11:23:53.463Z,36.37
2019-03-19T11:24:53.316Z,35.13
2019-03-19T11:25:54.867Z,36.20
2019-03-19T11:26:53.294Z,34.37
2019-03-19T11:27:53.286Z,33.44
2019-03-19T11:28:53.301Z,31.82
2019-03-19T11:29:59.746Z,32.03
2019-03-19T11:30:54.254Z,30.32
2019-03-19T11:31:53.242Z,31.84
2019-03-19T11:33:02.855Z,30.82
2019-03-19T11:33:53.217Z,30.44
2019-03-19T11:34:53.203Z,30.84
2019-03-19T11:35:53.272Z,31.85
2019-03-19T11:36:57.822Z,32.27
2019-03-19T11:37:53.179Z,32.47
2019-03-19T11:38:53.163Z,32.35
2019-03-19T11:39:53.155Z,35.02
2019-03-19T11:40:53.146Z,35.50
2019-03-19T11:41:53.153Z,36.75
2019-03-19T11:42:53.115Z,37.39
2019-03-19T11:43:53.110Z,37.51
2019-03-19T11:44:53.104Z,39.75
2019-03-19T11:45:53.093Z,40.92
2019-03-19T11:46:53.656Z,42.18
2019-03-19T11:47:53.079Z,44.28
2019-03-19T11:48:53.057Z,43.71
2019-03-19T11:49:53.044Z,44.85
2019-03-19T11:50:53.039Z,45.47
2019-03-19T11:51:53.032Z,46.21
2019-03-19T11:52:53.152Z,47.23
2019-03-19T11:53:53.014Z,46.51
2019-03-19T11:54:52.989Z,45.74
2019-03-19T11:55:52.974Z,46.04
2019-03-19T11:56:52.963Z,46.04
2019-03-19T11:57:52.955Z,45.74
2019-03-19T11:58:52.958Z,46.04
2019-03-19T11:59:52.955Z,46.68
2019-03-19T12:00:53.018Z,46.27
2019-03-19T12:01:52.913Z,46.78
2019-03-19T12:02:52.896Z,46.78
2019-03-19T12:03:52.905Z,46.89
2019-03-19T12:04:52.880Z,47.48
2019-03-19T12:05:52.867Z,47.48
2019-03-19T12:06:52.855Z,47.38
2019-03-19T12:07:52.899Z,48.60
2019-03-19T12:08:52.857Z,48.09
2019-03-19T12:09:52.825Z,47.45
2019-03-19T12:10:52.820Z,47.68
2019-03-19T12:11:52.803Z,47.52
2019-03-19T12:12:52.793Z,46.70
2019-03-19T12:13:52.790Z,46.21
2019-03-19T12:14:52.772Z,47.13
2019-03-19T12:15:52.765Z,47.00
2019-03-19T12:16:52.757Z,46.90
2019-03-19T12:17:52.734Z,46.26
2019-03-19T12:18:52.751Z,45.86
2019-03-19T12:19:52.727Z,44.14
2019-03-19T12:20:52.700Z,44.98
2019-03-19T12:21:52.696Z,44.37
2019-03-19T12:22:52.683Z,44.38
2019-03-19T12:23:52.674Z,43.40
2019-03-19T12:24:52.679Z,44.65
2019-03-19T12:25:52.667Z,44.35
2019-03-19T12:26:52.639Z,44.65
2019-03-19T12:27:52.634Z,45.37
2019-03-19T12:28:52.689Z,45.68
2019-03-19T12:29:52.618Z,45.17
2019-03-19T12:30:54.830Z,44.45
2019-03-19T12:31:52.580Z,44.64
2019-03-19T12:32:52.578Z,46.07
2019-03-19T12:33:52.560Z,45.56
2019-03-19T12:34:52.568Z,45.02
2019-03-19T12:35:52.542Z,44.84
2019-03-19T12:36:52.535Z,44.86
2019-03-19T12:37:52.524Z,44.35
2019-03-19T12:38:52.510Z,42.38
2019-03-19T12:39:52.509Z,42.00
2019-03-19T12:40:52.495Z,41.66
2019-03-19T12:41:52.473Z,39.07
2019-03-19T12:42:52.462Z,41.68
2019-03-19T12:43:52.454Z,41.60
2019-03-19T12:44:52.447Z,40.96
2019-03-19T12:45:52.441Z,42.43
2019-03-19T12:46:52.421Z,44.10
2019-03-19T12:47:52.423Z,44.02
2019-03-19T12:48:54.357Z,44.45
2019-03-19T12:49:52.393Z,44.18
2019-03-19T12:50:52.504Z,44.70
2019-03-19T12:51:52.376Z,44.51
2019-03-19T12:52:52.355Z,45.12
2019-03-19T12:53:52.345Z,46.15
2019-03-19T12:54:52.329Z,45.64
2019-03-19T12:55:52.325Z,45.25
2019-03-19T12:56:52.330Z,45.68
2019-03-19T12:57:52.301Z,46.11
2019-03-19T12:58:52.287Z,45.98
2019-03-19T12:59:52.283Z,46.52
2019-03-19T13:00:52.267Z,47.13
2019-03-19T13:01:52.266Z,46.09
2019-03-19T13:02:52.259Z,46.50
2019-03-19T13:03:52.263Z,45.76
2019-03-19T13:04:52.236Z,44.84
2019-03-19T13:05:52.208Z,45.84
2019-03-19T13:06:52.312Z,45.94
2019-03-19T13:07:52.191Z,45.18
2019-03-19T13:08:52.182Z,44.84
2019-03-19T13:09:52.166Z,45.47
2019-03-19T13:10:52.159Z,45.29
2019-03-19T13:11:52.149Z,46.41
2019-03-19T13:12:52.153Z,46.74
2019-03-19T13:13:52.122Z,46.53
2019-03-19T13:14:52.121Z,46.74
2019-03-19T13:15:52.098Z,46.97
2019-03-19T13:16:52.089Z,45.97
2019-03-19T13:17:52.105Z,44.82
2019-03-19T13:18:52.079Z,45.25
2019-03-19T13:19:52.059Z,45.74
2019-03-19T13:20:53.616Z,45.02
2019-03-19T13:21:52.040Z,44.94
2019-03-19T13:22:52.032Z,45.02
2019-03-19T13:23:52.010Z,46.45
2019-03-19T13:24:52.019Z,44.82
2019-03-19T13:25:51.999Z,45.25
2019-03-19T13:26:52.029Z,45.04
2019-03-19T13:27:51.973Z,44.47
2019-03-19T13:28:51.988Z,45.80
2019-03-19T13:29:51.949Z,46.52
2019-03-19T13:30:52.087Z,46.72
2019-03-19T13:31:51.926Z,46.70
2019-03-19T13:32:51.918Z,45.89
2019-03-19T13:33:51.925Z,45.80
2019-03-19T13:34:51.903Z,44.78
2019-03-19T13:35:51.895Z,45.42
2019-03-19T13:36:51.909Z,45.83
2019-03-19T13:37:51.875Z,46.85
2019-03-19T13:38:51.855Z,47.05
2019-03-19T13:39:51.867Z,46.03
2019-03-19T13:40:51.828Z,45.74
2019-03-19T13:41:51.820Z,46.36
2019-03-19T13:42:51.805Z,45.13
2019-03-19T13:43:51.899Z,44.71
2019-03-19T13:44:51.783Z,46.69
2019-03-19T13:45:51.801Z,45.64
2019-03-19T13:46:51.762Z,45.13
2019-03-19T13:47:51.749Z,45.54
2019-03-19T13:48:51.743Z,44.51
2019-03-19T13:49:51.728Z,44.41
2019-03-19T13:50:58.791Z,44.62
2019-03-19T13:51:51.749Z,45.23
2019-03-19T13:52:51.706Z,46.44
2019-03-19T13:53:51.687Z,44.90
2019-03-19T13:54:51.673Z,46.83
2019-03-19T13:55:51.663Z,45.90
2019-03-19T13:56:51.664Z,44.65
2019-03-19T13:57:59.701Z,44.55
2019-03-19T13:58:51.629Z,44.35
2019-03-19T13:59:59.448Z,44.24
2019-03-19T14:00:55.530Z,44.35
2019-03-19T14:01:58.644Z,45.17
2019-03-19T14:02:59.505Z,44.24
2019-03-19T14:03:51.598Z,44.96
2019-03-19T14:04:51.569Z,44.76
2019-03-19T14:05:51.553Z,45.37
2019-03-19T14:06:51.550Z,45.06
2019-03-19T14:07:51.532Z,44.65
2019-03-19T14:08:51.523Z,45.27
2019-03-19T14:09:51.517Z,45.37
2019-03-19T14:10:51.533Z,44.86
2019-03-19T14:11:51.492Z,45.27
2019-03-19T14:12:58.587Z,45.06
2019-03-19T14:13:51.470Z,45.37
2019-03-19T14:15:00.568Z,44.86
2019-03-19T14:15:51.449Z,44.96
2019-03-19T14:16:51.490Z,45.17
2019-03-19T14:17:51.433Z,46.11
2019-03-19T14:18:51.432Z,46.60
2019-03-19T14:19:51.497Z,46.39
2019-03-19T14:20:53.009Z,45.76
2019-03-19T14:21:51.386Z,46.37
2019-03-19T14:22:51.397Z,46.58
2019-03-19T14:23:51.367Z,46.17
2019-03-19T14:24:51.347Z,46.07
2019-03-19T14:25:51.351Z,47.19
2019-03-19T14:26:51.338Z,46.78
2019-03-19T14:27:51.317Z,46.89
2019-03-19T14:28:51.319Z,46.78
2019-03-19T14:29:51.793Z,46.78
2019-03-19T14:30:51.280Z,46.37
2019-03-19T14:31:51.582Z,46.68
2019-03-19T14:32:51.275Z,46.07
2019-03-19T14:33:51.251Z,46.48
2019-03-19T14:34:51.251Z,46.86
2019-03-19T14:35:51.241Z,46.37
2019-03-19T14:36:51.219Z,46.35
2019-03-19T14:37:51.219Z,46.35
2019-03-19T14:38:51.202Z,46.04
2019-03-19T14:39:51.189Z,46.15
2019-03-19T14:40:51.174Z,46.27
2019-03-19T14:41:52.056Z,46.27
2019-03-19T14:42:51.162Z,45.35
2019-03-19T14:43:51.139Z,45.15
2019-03-19T14:44:51.130Z,44.51
2019-03-19T14:45:51.131Z,43.90
2019-03-19T14:46:51.111Z,43.77
2019-03-19T14:47:51.119Z,45.00
2019-03-19T14:48:51.094Z,45.64
2019-03-19T14:49:51.190Z,45.64
2019-03-19T14:50:51.060Z,46.25
2019-03-19T14:51:51.051Z,46.12
2019-03-19T14:52:51.065Z,47.99
2019-03-19T14:53:51.033Z,45.00
2019-03-19T14:54:51.034Z,44.29
2019-03-19T14:55:51.062Z,44.18
2019-03-19T14:56:51.014Z,43.77
2019-03-19T14:57:51.294Z,44.29
2019-03-19T14:58:50.993Z,44.29
2019-03-19T14:59:50.971Z,44.29
2019-03-19T15:00:50.996Z,44.78
2019-03-19T15:01:50.940Z,44.22
2019-03-19T15:02:50.937Z,42.33
2019-03-19T15:03:50.965Z,40.90
2019-03-19T15:04:50.938Z,41.02
2019-03-19T15:05:50.907Z,42.06
2019-03-19T15:06:50.896Z,42.08
2019-03-19T15:07:50.875Z,42.00
2019-03-19T15:08:50.865Z,42.08
2019-03-19T15:09:50.868Z,41.22
2019-03-19T15:10:50.858Z,40.69
2019-03-19T15:11:50.836Z,39.26
2019-03-19T15:12:50.827Z,40.90
2019-03-19T15:13:50.811Z,41.00
2019-03-19T15:14:50.810Z,40.55
2019-03-19T15:15:50.794Z,41.49
2019-03-19T15:16:50.785Z,41.50
2019-03-19T15:17:50.774Z,42.03
2019-03-19T15:18:50.766Z,42.97
2019-03-19T15:19:50.794Z,43.08
2019-03-19T15:20:52.970Z,44.02
2019-03-19T15:21:50.727Z,42.90
2019-03-19T15:22:50.712Z,44.64
2019-03-19T15:23:50.719Z,45.97
2019-03-19T15:24:50.694Z,44.64
2019-03-19T15:25:50.699Z,44.53
2019-03-19T15:26:50.672Z,44.96
2019-03-19T15:27:50.666Z,44.35
2019-03-19T15:28:50.649Z,44.76
2019-03-19T15:29:50.671Z,44.65
2019-03-19T15:30:50.625Z,45.47
2019-03-19T15:31:50.629Z,44.76
2019-03-19T15:32:50.607Z,45.68
2019-03-19T15:33:50.607Z,45.37
2019-03-19T15:34:50.589Z,46.01
2019-03-19T15:35:50.596Z,46.31
2019-03-19T15:36:50.564Z,45.80
2019-03-19T15:37:50.547Z,46.11
2019-03-19T15:38:50.543Z,46.11
2019-03-19T15:39:50.535Z,46.72
2019-03-19T15:40:50.537Z,46.83
2019-03-19T15:41:57.584Z,47.34
2019-03-19T15:42:50.502Z,46.83
2019-03-19T15:43:50.500Z,46.31
2019-03-19T15:44:50.476Z,46.11
2019-03-19T15:46:00.109Z,45.90
2019-03-19T15:46:57.508Z,46.83
2019-03-19T15:47:57.507Z,46.93
2019-03-19T15:49:00.355Z,46.91
2019-03-19T15:49:50.434Z,47.52
2019-03-19T15:50:58.177Z,48.03
2019-03-19T15:51:50.393Z,47.44
2019-03-19T15:52:58.479Z,46.52
2019-03-19T15:53:50.379Z,46.11
2019-03-19T15:54:50.360Z,46.21
2019-03-19T15:55:50.356Z,47.34
2019-03-19T15:56:50.340Z,47.13
2019-03-19T15:57:50.348Z,46.62
2019-03-19T15:58:50.317Z,47.44
2019-03-19T15:59:50.357Z,47.34
2019-03-19T16:00:50.322Z,47.44
2019-03-19T16:01:50.290Z,47.24
2019-03-19T16:02:50.280Z,47.64
2019-03-19T16:03:50.313Z,47.85
2019-03-19T16:04:50.718Z,47.44
2019-03-19T16:05:50.242Z,47.13
2019-03-19T16:06:58.229Z,47.46
2019-03-19T16:07:59.261Z,47.56
2019-03-19T16:08:50.213Z,47.26
2019-03-19T16:09:50.206Z,48.39
2019-03-19T16:10:50.194Z,47.89
2019-03-19T16:13:06.272Z,49.54
2019-03-19T16:14:14.951Z,50.05
2019-03-19T16:15:13.983Z,50.05
2019-03-19T16:16:17.221Z,50.46
2019-03-19T16:17:06.175Z,51.07
2019-03-19T16:18:14.223Z,50.26
2019-03-19T16:20:33.178Z,50.97
2019-03-19T16:21:41.230Z,50.15
2019-03-19T16:22:42.029Z,50.59
2019-03-19T16:23:41.227Z,50.59
2019-03-19T16:24:41.051Z,51.10
2019-03-19T16:25:34.047Z,51.31
2019-03-19T16:26:40.148Z,50.90
2019-03-19T16:27:33.095Z,51.72
2019-03-19T16:28:33.099Z,51.72
2019-03-19T16:29:33.081Z,50.79
2019-03-19T16:30:33.073Z,51.41
2019-03-19T16:31:33.052Z,52.12
2019-03-19T16:32:40.597Z,52.02
2019-03-19T16:33:40.231Z,51.92
2019-03-19T16:34:40.635Z,52.74
2019-03-19T16:35:33.015Z,52.84
2019-03-19T16:36:40.662Z,52.95
2019-03-19T16:37:32.992Z,52.84
2019-03-19T16:38:33.743Z,52.64
2019-03-19T16:39:35.186Z,53.15
2019-03-19T16:40:32.969Z,52.44
2019-03-19T16:41:32.955Z,52.54
2019-03-19T16:42:32.934Z,53.15
2019-03-19T16:43:40.695Z,52.95
2019-03-19T16:44:32.918Z,52.54
2019-03-19T16:45:39.961Z,52.02
2019-03-19T16:46:32.898Z,53.05
2019-03-19T16:47:32.891Z,52.44
2019-03-19T16:48:32.878Z,53.05
2019-03-19T16:49:32.880Z,52.54
2019-03-19T16:50:32.877Z,53.15
2019-03-19T16:51:32.843Z,52.74
2019-03-19T16:52:32.837Z,52.66
2019-03-19T16:53:32.823Z,53.05
2019-03-19T16:54:32.808Z,53.05
2019-03-19T16:55:32.804Z,53.05
2019-03-19T16:56:32.798Z,53.97
2019-03-19T16:57:32.809Z,53.49
2019-03-19T16:58:32.773Z,52.97
2019-03-19T16:59:32.754Z,53.17
2019-03-19T17:00:32.744Z,52.76
2019-03-19T17:01:32.741Z,53.17
2019-03-19T17:02:32.734Z,52.66
2019-03-19T17:03:32.722Z,53.38
2019-03-19T17:04:32.716Z,53.89
2019-03-19T17:05:32.690Z,54.00
2019-03-19T17:06:32.682Z,54.41
2019-03-19T17:07:32.682Z,54.53
2019-03-19T17:08:32.673Z,54.43
2019-03-19T17:09:32.653Z,54.85
2019-03-19T17:10:32.650Z,54.74
2019-03-19T17:11:32.630Z,54.85
2019-03-19T17:12:32.644Z,54.64
2019-03-19T17:13:32.611Z,54.64
2019-03-19T17:14:32.595Z,55.26
2019-03-19T17:15:32.586Z,55.36
2019-03-19T17:16:32.581Z,55.59
2019-03-19T17:17:32.565Z,55.59
2019-03-19T17:18:32.572Z,55.59
2019-03-19T17:19:32.547Z,55.46
2019-03-19T17:20:32.532Z,55.59
2019-03-19T17:21:32.526Z,55.90
2019-03-19T17:22:32.518Z,55.79
2019-03-19T17:23:32.512Z,55.90
2019-03-19T17:24:32.490Z,56.21
2019-03-19T17:25:32.482Z,55.69
2019-03-19T17:26:32.484Z,56.21
2019-03-19T17:27:32.465Z,56.00
2019-03-19T17:28:32.447Z,56.00
2019-03-19T17:29:32.450Z,56.10
2019-03-19T17:30:32.422Z,56.00
2019-03-19T17:31:32.421Z,55.49
2019-03-19T17:32:32.412Z,56.00
2019-03-19T17:33:40.229Z,56.02
2019-03-19T17:34:32.418Z,56.44
2019-03-19T17:35:32.372Z,56.13
2019-03-19T17:36:32.364Z,56.23
2019-03-19T17:37:32.357Z,56.23
2019-03-19T17:38:32.345Z,56.74
2019-03-19T17:39:32.327Z,56.95
2019-03-19T17:40:40.825Z,57.06
2019-03-19T17:41:33.311Z,56.95
2019-03-19T17:42:32.296Z,57.26
2019-03-19T17:43:32.922Z,56.34
2019-03-19T17:44:32.291Z,56.95
2019-03-19T17:45:32.291Z,57.26
2019-03-19T17:46:32.255Z,57.16
2019-03-19T17:47:32.247Z,56.85
2019-03-19T17:48:32.236Z,57.16
2019-03-19T17:49:32.234Z,57.26
2019-03-19T17:50:32.217Z,57.39
2019-03-19T17:51:32.212Z,57.50
2019-03-19T17:52:32.189Z,57.29
2019-03-19T17:53:32.178Z,57.29
2019-03-19T17:54:32.182Z,58.52
2019-03-19T17:55:32.162Z,58.52
2019-03-19T17:56:32.155Z,58.52
2019-03-19T17:57:32.138Z,58.11
2019-03-19T17:58:32.124Z,58.11
2019-03-19T17:59:32.138Z,58.11
2019-03-19T18:00:32.103Z,58.21
2019-03-19T18:01:32.098Z,58.34
2019-03-19T18:02:32.129Z,58.45
2019-03-19T18:03:32.072Z,57.93
2019-03-19T18:04:32.066Z,59.06
2019-03-19T18:05:32.051Z,58.21
2019-03-19T18:06:32.043Z,58.65
2019-03-19T18:07:32.029Z,58.75
2019-03-19T18:08:32.062Z,58.65
2019-03-19T18:09:32.008Z,59.06
2019-03-19T18:10:32.002Z,58.96
2019-03-19T18:11:31.985Z,59.37
2019-03-19T18:12:31.983Z,59.27
2019-03-19T18:13:31.972Z,60.02
2019-03-19T18:14:31.970Z,59.81
2019-03-19T18:15:31.949Z,60.02
2019-03-19T18:16:31.934Z,59.74
2019-03-19T18:17:31.932Z,60.12
2019-03-19T18:18:31.948Z,59.70
2019-03-19T18:19:31.898Z,60.35
2019-03-19T18:20:31.891Z,60.43
2019-03-19T18:21:31.883Z,60.46
2019-03-19T18:22:31.867Z,59.91
2019-03-19T18:23:31.990Z,60.66
2019-03-19T18:24:31.872Z,60.77
2019-03-19T18:25:31.859Z,60.74
2019-03-19T18:26:31.824Z,60.53
2019-03-19T18:27:31.815Z,60.33
2019-03-19T18:28:31.803Z,60.53
2019-03-19T18:29:31.796Z,60.63
2019-03-19T18:30:31.800Z,60.56
2019-03-19T18:31:31.771Z,60.22
2019-03-19T18:32:35.382Z,60.56
2019-03-19T18:33:31.759Z,60.56
2019-03-19T18:34:31.743Z,60.56
2019-03-19T18:35:31.733Z,60.46